Terminal Aerodrome Forecast
Issued by NWS

Home | Current Version | Previous Version | Text Only | Print | Product List | Glossary On
Versions: 1 2 3 4 5 6 7 8 9 10 11 12 13 14
000
FTUS43 KEAX 221726
TAFMKC
TAF
KMKC 221726Z 2218/2318 21013KT P6SM BKN030
     FM230100 18006KT P6SM SCT150
     FM230600 02012KT P6SM VCTS BKN040CB
     FM230900 03010KT P6SM BKN050
     FM231600 35010KT P6SM SCT060=

USA.gov is the U.S. government's official web portal to all federal, state and local government web resources and services.